Thunder radar more information blitzortung!


Radar de pluja more information rain snow radar


Visita la nostra xarxa de llocs de meteo:

Template documentation
and downloads

And another site



Extreme low temperature From: 13-12-2017 09:00 Until: 09:59 warning for: Extreme low temperature Level: Yellow info button

Pagina Historial Weather Underground text

Diari Resum Desembre 1, 2017 Unitats:  Tant    Imperial   Mètric
« Previous Dia
SegĂźent Dia »
Diari Setmana Mensual Anual Personalitzada
  Maxima: Minima: Media:
Temperatura: 45.9 °F /  7.7 °C 33.8 °F /  1.0 °C 39.4 °F /  4.1 °C
Punt de rosada: 28.8 °F /  -1.8 °C 16.3 °F /  -8.7 °C 24.8 °F /  -4 °C
Humitat: 63 % 44 % 56 %
Wind Speed: 8.1 mph /  13.0 km/h - 2.4 mph /  3.8 km/h
RĂ fegues de vent: 8.1 mph /  13.0 km/h - -
Vent:- - SSE
Pression baro: 29.9 in /  1013.8 hPa 29.8 in /  1008.0 hPa -
Precipitacions: 0 in /  0.0 mm    
Historical Graphs
 
 
Dades de taula per Desembre 1, 2017
Temps Temperatura Punt de rosada Pression baro Vent Wind Speed RĂ fegues de vent Humitat Rainfall Rate (Hourly)
01:00 38.1 °F /  3.4 °C 20.1 °F /  -6.6 °C 29.9 in /  1013.8 hPa Calm     48 % 0 in /  0.0 mm
01:05 37.9 °F /  3.3 °C 19.9 °F /  -6.7 °C 29.9 in /  1013.8 hPa Calm     48 % 0 in /  0.0 mm
01:10 37.9 °F /  3.3 °C 20.5 °F /  -6.4 °C 29.9 in /  1013.8 hPa Calm     49 % 0 in /  0.0 mm
01:15 37.9 °F /  3.3 °C 20.5 °F /  -6.4 °C 29.9 in /  1013.8 hPa Calm     49 % 0 in /  0.0 mm
01:20 37.9 °F /  3.3 °C 20.5 °F /  -6.4 °C 29.9 in /  1012.8 hPa Calm     49 % 0 in /  0.0 mm
01:25 37.9 °F /  3.3 °C 20.5 °F /  -6.4 °C 29.9 in /  1012.8 hPa Calm     49 % 0 in /  0.0 mm
01:30 38.1 °F /  3.4 °C 21 °F /  -6.1 °C 29.9 in /  1013.8 hPa Calm   1 mph /  1.6 km/h 50 % 0 in /  0.0 mm
01:40 38.1 °F /  3.4 °C 21 °F /  -6.1 °C 29.9 in /  1013.8 hPa North 1 mph /  1.6 km/h   50 % 0 in /  0.0 mm
01:45 38.3 °F /  3.5 °C 21.7 °F /  -5.7 °C 29.9 in /  1013.8 hPa NW 1 mph /  1.6 km/h 2 mph /  3.2 km/h 51 % 0 in /  0.0 mm
01:50 38.7 °F /  3.7 °C 22.1 °F /  -5.5 °C 29.9 in /  1012.8 hPa WNW 1 mph /  1.6 km/h 1 mph /  1.6 km/h 51 % 0 in /  0.0 mm
01:55 38.8 °F /  3.8 °C 22.3 °F /  -5.4 °C 29.9 in /  1012.8 hPa WSW 2 mph /  3.2 km/h 2 mph /  3.2 km/h 51 % 0 in /  0.0 mm
02:00 39.2 °F /  4.0 °C 23 °F /  -5.0 °C 29.9 in /  1012.8 hPa WSW 1 mph /  1.6 km/h 1 mph /  1.6 km/h 52 % 0 in /  0.0 mm
02:05 39.4 °F /  4.1 °C 23.2 °F /  -4.9 °C 29.9 in /  1012.8 hPa WNW 2 mph /  3.2 km/h 3 mph /  4.8 km/h 52 % 0 in /  0.0 mm
02:10 39.9 °F /  4.4 °C 24.3 °F /  -4.3 °C 29.9 in /  1012.8 hPa West 2 mph /  3.2 km/h 3 mph /  4.8 km/h 53 % 0 in /  0.0 mm
02:15 39.9 °F /  4.4 °C 24.3 °F /  -4.3 °C 29.9 in /  1012.8 hPa West 2 mph /  3.2 km/h 3 mph /  4.8 km/h 53 % 0 in /  0.0 mm
02:20 39.7 °F /  4.3 °C 24.1 °F /  -4.4 °C 29.9 in /  1011.7 hPa West 2 mph /  3.2 km/h 4 mph /  6.4 km/h 53 % 0 in /  0.0 mm
02:25 39.9 °F /  4.4 °C 24.3 °F /  -4.3 °C 29.9 in /  1011.7 hPa NW 1 mph /  1.6 km/h 2 mph /  3.2 km/h 53 % 0 in /  0.0 mm
02:35 39.7 °F /  4.3 °C 24.4 °F /  -4.2 °C 29.9 in /  1011.7 hPa Calm   1 mph /  1.6 km/h 54 % 0 in /  0.0 mm
02:40 39.6 °F /  4.2 °C 24.3 °F /  -4.3 °C 29.9 in /  1011.7 hPa ENE 2 mph /  3.2 km/h 2 mph /  3.2 km/h 54 % 0 in /  0.0 mm
02:45 39.4 °F /  4.1 °C 24.1 °F /  -4.4 °C 29.9 in /  1011.7 hPa Calm   2 mph /  3.2 km/h 54 % 0 in /  0.0 mm
02:50 39.4 °F /  4.1 °C 24.1 °F /  -4.4 °C 29.9 in /  1011.7 hPa WNW 2 mph /  3.2 km/h 2 mph /  3.2 km/h 54 % 0 in /  0.0 mm
02:55 39.6 °F /  4.2 °C 24.3 °F /  -4.3 °C 29.9 in /  1011.7 hPa WNW 1 mph /  1.6 km/h 1 mph /  1.6 km/h 54 % 0 in /  0.0 mm
03:00 39.6 °F /  4.2 °C 24.3 °F /  -4.3 °C 29.9 in /  1011.7 hPa WNW 2 mph /  3.2 km/h 2 mph /  3.2 km/h 54 % 0 in /  0.0 mm
03:05 39.6 °F /  4.2 °C 24.3 °F /  -4.3 °C 29.9 in /  1011.7 hPa West 2 mph /  3.2 km/h 2 mph /  3.2 km/h 54 % 0 in /  0.0 mm
03:10 39.7 °F /  4.3 °C 24.4 °F /  -4.2 °C 29.9 in /  1011.7 hPa West 2 mph /  3.2 km/h 2 mph /  3.2 km/h 54 % 0 in /  0.0 mm
03:15 39.9 °F /  4.4 °C 25 °F /  -3.9 °C 29.9 in /  1011.7 hPa West 1 mph /  1.6 km/h 3 mph /  4.8 km/h 55 % 0 in /  0.0 mm
03:25 40.1 °F /  4.5 °C 25.2 °F /  -3.8 °C 29.9 in /  1011.7 hPa West 2 mph /  3.2 km/h 2 mph /  3.2 km/h 55 % 0 in /  0.0 mm
03:30 39.9 °F /  4.4 °C 25 °F /  -3.9 °C 29.8 in /  1010.7 hPa Calm   2 mph /  3.2 km/h 55 % 0 in /  0.0 mm
03:35 39.9 °F /  4.4 °C 25 °F /  -3.9 °C 29.8 in /  1010.7 hPa WNW 2 mph /  3.2 km/h 2 mph /  3.2 km/h 55 % 0 in /  0.0 mm
03:40 39.9 °F /  4.4 °C 25 °F /  -3.9 °C 29.8 in /  1010.7 hPa WNW 2 mph /  3.2 km/h 2 mph /  3.2 km/h 55 % 0 in /  0.0 mm
03:45 39.9 °F /  4.4 °C 25 °F /  -3.9 °C 29.9 in /  1011.7 hPa WNW 1 mph /  1.6 km/h 2 mph /  3.2 km/h 55 % 0 in /  0.0 mm
03:50 39.9 °F /  4.4 °C 25.5 °F /  -3.6 °C 29.9 in /  1011.7 hPa Calm   2 mph /  3.2 km/h 56 % 0 in /  0.0 mm
03:55 39.9 °F /  4.4 °C 25.5 °F /  -3.6 °C 29.9 in /  1011.7 hPa Calm   1 mph /  1.6 km/h 56 % 0 in /  0.0 mm
04:00 39.9 °F /  4.4 °C 25.5 °F /  -3.6 °C 29.9 in /  1011.7 hPa Calm   2 mph /  3.2 km/h 56 % 0 in /  0.0 mm
04:05 39.7 °F /  4.3 °C 25 °F /  -3.9 °C 29.9 in /  1011.7 hPa NW 1 mph /  1.6 km/h 2 mph /  3.2 km/h 55 % 0 in /  0.0 mm
04:10 39.6 °F /  4.2 °C 25.2 °F /  -3.8 °C 29.9 in /  1011.7 hPa Calm   1 mph /  1.6 km/h 56 % 0 in /  0.0 mm
04:15 39.7 °F /  4.3 °C 25.3 °F /  -3.7 °C 29.9 in /  1011.7 hPa Calm   1 mph /  1.6 km/h 56 % 0 in /  0.0 mm
04:20 40.1 °F /  4.5 °C 25.5 °F /  -3.6 °C 29.9 in /  1011.7 hPa Calm   1 mph /  1.6 km/h 56 % 0 in /  0.0 mm
04:25 40.3 °F /  4.6 °C 26.2 °F /  -3.2 °C 29.9 in /  1011.7 hPa Calm     57 % 0 in /  0.0 mm
04:30 40.3 °F /  4.6 °C 26.2 °F /  -3.2 °C 29.8 in /  1010.7 hPa SE 1 mph /  1.6 km/h 1 mph /  1.6 km/h 57 % 0 in /  0.0 mm
04:35 40.1 °F /  4.5 °C 26.1 °F /  -3.3 °C 29.8 in /  1010.7 hPa East 1 mph /  1.6 km/h 1 mph /  1.6 km/h 57 % 0 in /  0.0 mm
04:40 39.9 °F /  4.4 °C 25.5 °F /  -3.6 °C 29.8 in /  1010.7 hPa NW 3 mph /  4.8 km/h 3 mph /  4.8 km/h 56 % 0 in /  0.0 mm
04:45 40.1 °F /  4.5 °C 25.5 °F /  -3.6 °C 29.8 in /  1010.7 hPa NW 3 mph /  4.8 km/h 3 mph /  4.8 km/h 56 % 0 in /  0.0 mm
04:50 40.1 °F /  4.5 °C 26.1 °F /  -3.3 °C 29.8 in /  1010.7 hPa NNW 3 mph /  4.8 km/h 3 mph /  4.8 km/h 57 % 0 in /  0.0 mm
04:55 39.6 °F /  4.2 °C 25.5 °F /  -3.6 °C 29.8 in /  1010.7 hPa NNW 2 mph /  3.2 km/h 2 mph /  3.2 km/h 57 % 0 in /  0.0 mm
05:10 39.2 °F /  4.0 °C 24.8 °F /  -4.0 °C 29.8 in /  1010.7 hPa North 1 mph /  1.6 km/h 3 mph /  4.8 km/h 56 % 0 in /  0.0 mm
05:15 39.4 °F /  4.1 °C 25.3 °F /  -3.7 °C 29.8 in /  1010.7 hPa NNW 3 mph /  4.8 km/h 3 mph /  4.8 km/h 57 % 0 in /  0.0 mm
05:20 39.4 °F /  4.1 °C 25.3 °F /  -3.7 °C 29.8 in /  1010.7 hPa NNW 1 mph /  1.6 km/h 2 mph /  3.2 km/h 57 % 0 in /  0.0 mm
05:25 39.6 °F /  4.2 °C 25.5 °F /  -3.6 °C 29.8 in /  1010.7 hPa North 1 mph /  1.6 km/h 2 mph /  3.2 km/h 57 % 0 in /  0.0 mm
05:30 39.4 °F /  4.1 °C 25.3 °F /  -3.7 °C 29.8 in /  1010.7 hPa NE 1 mph /  1.6 km/h 2 mph /  3.2 km/h 57 % 0 in /  0.0 mm
05:35 39.2 °F /  4.0 °C 25.2 °F /  -3.8 °C 29.8 in /  1010.7 hPa Calm   2 mph /  3.2 km/h 57 % 0 in /  0.0 mm
05:40 39.2 °F /  4.0 °C 25.5 °F /  -3.6 °C 29.8 in /  1010.7 hPa ENE 1 mph /  1.6 km/h   58 % 0 in /  0.0 mm
05:45 38.8 °F /  3.8 °C 25 °F /  -3.9 °C 29.8 in /  1010.0 hPa NE 1 mph /  1.6 km/h 2 mph /  3.2 km/h 57 % 0 in /  0.0 mm
05:50 38.7 °F /  3.7 °C 25.2 °F /  -3.8 °C 29.8 in /  1010.0 hPa ENE 2 mph /  3.2 km/h 3 mph /  4.8 km/h 58 % 0 in /  0.0 mm
06:05 37.9 °F /  3.3 °C 24.4 °F /  -4.2 °C 29.8 in /  1010.0 hPa ENE 1 mph /  1.6 km/h 3 mph /  4.8 km/h 58 % 0 in /  0.0 mm
06:10 37.8 °F /  3.2 °C 24.3 °F /  -4.3 °C 29.8 in /  1010.0 hPa NE 1 mph /  1.6 km/h 3 mph /  4.8 km/h 58 % 0 in /  0.0 mm
06:15 37.4 °F /  3.0 °C 23.5 °F /  -4.7 °C 29.8 in /  1010.0 hPa North 1 mph /  1.6 km/h 1 mph /  1.6 km/h 57 % 0 in /  0.0 mm
06:20 37.6 °F /  3.1 °C 24.1 °F /  -4.4 °C 29.8 in /  1010.0 hPa NNE 3 mph /  4.8 km/h 4 mph /  6.4 km/h 58 % 0 in /  0.0 mm
06:35 37 °F /  2.8 °C 23.5 °F /  -4.7 °C 29.8 in /  1010.0 hPa NNE 3 mph /  4.8 km/h 4 mph /  6.4 km/h 58 % 0 in /  0.0 mm
06:40 37 °F /  2.8 °C 23.5 °F /  -4.7 °C 29.8 in /  1010.0 hPa NNE 3 mph /  4.8 km/h 6 mph /  9.7 km/h 58 % 0 in /  0.0 mm
06:45 37 °F /  2.8 °C 23.5 °F /  -4.7 °C 29.8 in /  1010.0 hPa NNE 1 mph /  1.6 km/h 6 mph /  9.7 km/h 58 % 0 in /  0.0 mm
06:50 36.9 °F /  2.7 °C 23.4 °F /  -4.8 °C 29.8 in /  1010.0 hPa NE 2 mph /  3.2 km/h 3 mph /  4.8 km/h 58 % 0 in /  0.0 mm
07:00 36.5 °F /  2.5 °C 23.5 °F /  -4.7 °C 29.8 in /  1010.0 hPa NE 2 mph /  3.2 km/h 3 mph /  4.8 km/h 59 % 0 in /  0.0 mm
07:05 36.3 °F /  2.4 °C 23.4 °F /  -4.8 °C 29.8 in /  1010.0 hPa NE 2 mph /  3.2 km/h 2 mph /  3.2 km/h 59 % 0 in /  0.0 mm
07:10 36.3 °F /  2.4 °C 23.4 °F /  -4.8 °C 29.8 in /  1010.0 hPa NE 2 mph /  3.2 km/h 3 mph /  4.8 km/h 59 % 0 in /  0.0 mm
07:15 36.3 °F /  2.4 °C 23.4 °F /  -4.8 °C 29.8 in /  1010.0 hPa East 1 mph /  1.6 km/h 3 mph /  4.8 km/h 59 % 0 in /  0.0 mm
07:20 36.3 °F /  2.4 °C 23.4 °F /  -4.8 °C 29.8 in /  1010.0 hPa Calm   3 mph /  4.8 km/h 59 % 0 in /  0.0 mm
07:30 36.7 °F /  2.6 °C 23.7 °F /  -4.6 °C 29.8 in /  1010.0 hPa West 2 mph /  3.2 km/h 4 mph /  6.4 km/h 59 % 0 in /  0.0 mm
07:35 36.7 °F /  2.6 °C 23.7 °F /  -4.6 °C 29.8 in /  1010.0 hPa West 3 mph /  4.8 km/h 4 mph /  6.4 km/h 59 % 0 in /  0.0 mm
07:40 37.4 °F /  3.0 °C 24.8 °F /  -4.0 °C 29.8 in /  1010.0 hPa WSW 1 mph /  1.6 km/h 3 mph /  4.8 km/h 60 % 0 in /  0.0 mm
07:45 38.1 °F /  3.4 °C 25.3 °F /  -3.7 °C 29.8 in /  1010.0 hPa WNW 3 mph /  4.8 km/h 3 mph /  4.8 km/h 60 % 0 in /  0.0 mm
07:50 39 °F /  3.9 °C 26.2 °F /  -3.2 °C 29.8 in /  1010.0 hPa WNW 1 mph /  1.6 km/h 3 mph /  4.8 km/h 60 % 0 in /  0.0 mm
07:55 38.7 °F /  3.7 °C 26.1 °F /  -3.3 °C 29.8 in /  1010.0 hPa WSW 2 mph /  3.2 km/h 4 mph /  6.4 km/h 60 % 0 in /  0.0 mm
08:00 38.5 °F /  3.6 °C 25.9 °F /  -3.4 °C 29.8 in /  1010.0 hPa West 1 mph /  1.6 km/h 4 mph /  6.4 km/h 60 % 0 in /  0.0 mm
08:05 38.3 °F /  3.5 °C 25.5 °F /  -3.6 °C 29.8 in /  1010.0 hPa WNW 2 mph /  3.2 km/h 2 mph /  3.2 km/h 60 % 0 in /  0.0 mm
08:10 38.5 °F /  3.6 °C 25.9 °F /  -3.4 °C 29.8 in /  1010.0 hPa WNW 2 mph /  3.2 km/h 4 mph /  6.4 km/h 60 % 0 in /  0.0 mm
08:15 38.5 °F /  3.6 °C 25.9 °F /  -3.4 °C 29.8 in /  1010.0 hPa West 2 mph /  3.2 km/h 4 mph /  6.4 km/h 60 % 0 in /  0.0 mm
08:20 38.8 °F /  3.8 °C 26.1 °F /  -3.3 °C 29.8 in /  1010.0 hPa West 1 mph /  1.6 km/h 2 mph /  3.2 km/h 60 % 0 in /  0.0 mm
08:25 39.2 °F /  4.0 °C 26.4 °F /  -3.1 °C 29.8 in /  1010.0 hPa WNW 2 mph /  3.2 km/h 2 mph /  3.2 km/h 60 % 0 in /  0.0 mm
08:30 39.6 °F /  4.2 °C 26.8 °F /  -2.9 °C 29.8 in /  1010.0 hPa WNW 1 mph /  1.6 km/h 2 mph /  3.2 km/h 60 % 0 in /  0.0 mm
08:35 39.7 °F /  4.3 °C 27 °F /  -2.8 °C 29.8 in /  1010.0 hPa NW 2 mph /  3.2 km/h 3 mph /  4.8 km/h 60 % 0 in /  0.0 mm
08:40 40.6 °F /  4.8 °C 28.2 °F /  -2.1 °C 29.8 in /  1010.0 hPa WNW 1 mph /  1.6 km/h 3 mph /  4.8 km/h 61 % 0 in /  0.0 mm
08:45 41.2 °F /  5.1 °C 28.8 °F /  -1.8 °C 29.8 in /  1010.0 hPa South 1 mph /  1.6 km/h 2 mph /  3.2 km/h 61 % 0 in /  0.0 mm
08:50 41.4 °F /  5.2 °C 28.6 °F /  -1.9 °C 29.8 in /  1010.0 hPa NW 3 mph /  4.8 km/h 3 mph /  4.8 km/h 60 % 0 in /  0.0 mm
09:00 40.5 °F /  4.7 °C 27.1 °F /  -2.7 °C 29.8 in /  1010.0 hPa NNE 3 mph /  4.8 km/h 3 mph /  4.8 km/h 59 % 0 in /  0.0 mm
09:05 40.1 °F /  4.5 °C 27 °F /  -2.8 °C 29.8 in /  1010.0 hPa NNE 2 mph /  3.2 km/h 3 mph /  4.8 km/h 59 % 0 in /  0.0 mm
09:10 40.1 °F /  4.5 °C 27 °F /  -2.8 °C 29.8 in /  1010.0 hPa NE 2 mph /  3.2 km/h 2 mph /  3.2 km/h 59 % 0 in /  0.0 mm
09:20 38.5 °F /  3.6 °C 19.6 °F /  -6.9 °C 29.9 in /  1013.8 hPa SW 1 mph /  1.6 km/h 1 mph /  1.6 km/h 46 % 0 in /  0.0 mm
09:24 39.9 °F /  4.4 °C 26.8 °F /  -2.9 °C 29.8 in /  1010.0 hPa NNW 2.3 mph /  3.7 km/h 2.3 mph /  3.7 km/h 59 % 0 in /  0.0 mm
09:29 39.9 °F /  4.4 °C 26.8 °F /  -2.9 °C 29.8 in /  1010.0 hPa NNW 2.3 mph /  3.7 km/h 2.3 mph /  3.7 km/h 59 % 0 in /  0.0 mm
09:34 39.9 °F /  4.4 °C 26.2 °F /  -3.2 °C 29.8 in /  1010.0 hPa ENE 4.7 mph /  7.6 km/h 4.7 mph /  7.6 km/h 58 % 0 in /  0.0 mm
09:39 39.7 °F /  4.3 °C 26.2 °F /  -3.2 °C 29.8 in /  1010.0 hPa ENE 3.1 mph /  5.0 km/h 3.1 mph /  5.0 km/h 58 % 0 in /  0.0 mm
09:44 39.7 °F /  4.3 °C 26.2 °F /  -3.2 °C 29.8 in /  1009.0 hPa NNW 2.3 mph /  3.7 km/h 2.3 mph /  3.7 km/h 58 % 0 in /  0.0 mm
09:50 39.9 °F /  4.4 °C 26.8 °F /  -2.9 °C 29.8 in /  1009.0 hPa ENE 4.9 mph /  7.9 km/h 4.9 mph /  7.9 km/h 59 % 0 in /  0.0 mm
09:55 39.9 °F /  4.4 °C 26.8 °F /  -2.9 °C 29.8 in /  1009.0 hPa East 3.5 mph /  5.6 km/h 3.5 mph /  5.6 km/h 59 % 0 in /  0.0 mm
10:00 39.9 °F /  4.4 °C 26.2 °F /  -3.2 °C 29.8 in /  1010.0 hPa North 3.5 mph /  5.6 km/h 3.5 mph /  5.6 km/h 58 % 0 in /  0.0 mm
10:05 39.9 °F /  4.4 °C 26.2 °F /  -3.2 °C 29.8 in /  1010.0 hPa East 2.3 mph /  3.7 km/h 2.3 mph /  3.7 km/h 58 % 0 in /  0.0 mm
10:10 39.9 °F /  4.4 °C 26.8 °F /  -2.9 °C 29.8 in /  1010.0 hPa South 1.4 mph /  2.3 km/h 1.4 mph /  2.3 km/h 59 % 0 in /  0.0 mm
10:15 39.7 °F /  4.3 °C 26.2 °F /  -3.2 °C 29.8 in /  1010.0 hPa NNE 4.6 mph /  7.4 km/h 4.6 mph /  7.4 km/h 58 % 0 in /  0.0 mm
10:20 39.2 °F /  4.0 °C 25.5 °F /  -3.6 °C 29.8 in /  1010.0 hPa NNE 5.9 mph /  9.5 km/h 5.9 mph /  9.5 km/h 58 % 0 in /  0.0 mm
10:30 39.2 °F /  4.0 °C 25.5 °F /  -3.6 °C 29.8 in /  1010.0 hPa NE 6.4 mph /  10.3 km/h 6.4 mph /  10.3 km/h 58 % 0 in /  0.0 mm
10:35 39 °F /  3.9 °C 25.5 °F /  -3.6 °C 29.8 in /  1010.0 hPa NNE 5.8 mph /  9.3 km/h 5.8 mph /  9.3 km/h 58 % 0 in /  0.0 mm
10:40 39.4 °F /  4.1 °C 26.2 °F /  -3.2 °C 29.8 in /  1010.0 hPa NNE 5.8 mph /  9.3 km/h 5.8 mph /  9.3 km/h 59 % 0 in /  0.0 mm
10:45 39.7 °F /  4.3 °C 26.6 °F /  -3.0 °C 29.8 in /  1010.7 hPa NE 5.8 mph /  9.3 km/h 5.8 mph /  9.3 km/h 59 % 0 in /  0.0 mm
10:50 40.1 °F /  4.5 °C 27 °F /  -2.8 °C 29.8 in /  1010.7 hPa NE 4.6 mph /  7.4 km/h 4.6 mph /  7.4 km/h 59 % 0 in /  0.0 mm
10:55 40.3 °F /  4.6 °C 27.1 °F /  -2.7 °C 29.8 in /  1010.7 hPa WNW 4.6 mph /  7.4 km/h 4.6 mph /  7.4 km/h 59 % 0 in /  0.0 mm
11:00 40.5 °F /  4.7 °C 27.1 °F /  -2.7 °C 29.8 in /  1010.7 hPa NE 3.5 mph /  5.6 km/h 3.5 mph /  5.6 km/h 59 % 0 in /  0.0 mm
11:05 40.3 °F /  4.6 °C 27.1 °F /  -2.7 °C 29.8 in /  1010.7 hPa NNE 8.1 mph /  13.0 km/h 8.1 mph /  13.0 km/h 59 % 0 in /  0.0 mm
11:10 40.3 °F /  4.6 °C 27.1 °F /  -2.7 °C 29.8 in /  1010.7 hPa NNW 2.3 mph /  3.7 km/h 2.3 mph /  3.7 km/h 59 % 0 in /  0.0 mm
11:15 40.5 °F /  4.7 °C 27.1 °F /  -2.7 °C 29.8 in /  1010.7 hPa ENE 4 mph /  6.4 km/h 4 mph /  6.4 km/h 59 % 0 in /  0.0 mm
11:20 40.5 °F /  4.7 °C 26.8 °F /  -2.9 °C 29.8 in /  1010.7 hPa NNE 4.6 mph /  7.4 km/h 4.6 mph /  7.4 km/h 58 % 0 in /  0.0 mm
11:25 40.3 °F /  4.6 °C 26.8 °F /  -2.9 °C 29.8 in /  1010.7 hPa ENE 5.8 mph /  9.3 km/h 5.8 mph /  9.3 km/h 58 % 0 in /  0.0 mm
11:30 40.3 °F /  4.6 °C 26.8 °F /  -2.9 °C 29.8 in /  1010.0 hPa ENE 4.9 mph /  7.9 km/h 4.9 mph /  7.9 km/h 58 % 0 in /  0.0 mm
11:35 40.1 °F /  4.5 °C 26.4 °F /  -3.1 °C 29.8 in /  1010.0 hPa ENE 5.6 mph /  9.0 km/h 5.6 mph /  9.0 km/h 58 % 0 in /  0.0 mm
11:40 40.1 °F /  4.5 °C 26.4 °F /  -3.1 °C 29.8 in /  1010.0 hPa NNE 4.6 mph /  7.4 km/h 4.6 mph /  7.4 km/h 58 % 0 in /  0.0 mm
11:45 40.1 °F /  4.5 °C 27 °F /  -2.8 °C 29.8 in /  1010.0 hPa East 2.6 mph /  4.2 km/h 2.6 mph /  4.2 km/h 59 % 0 in /  0.0 mm
11:50 39.9 °F /  4.4 °C 26.8 °F /  -2.9 °C 29.8 in /  1010.0 hPa NNE 2.3 mph /  3.7 km/h 2.4 mph /  3.9 km/h 59 % 0 in /  0.0 mm
11:55 40.1 °F /  4.5 °C 27 °F /  -2.8 °C 29.8 in /  1010.0 hPa NNE 2.3 mph /  3.7 km/h 2.3 mph /  3.7 km/h 59 % 0 in /  0.0 mm
12:00 40.3 °F /  4.6 °C 27.1 °F /  -2.7 °C 29.8 in /  1010.0 hPa NNW 4.3 mph /  6.9 km/h 4.3 mph /  6.9 km/h 59 % 0 in /  0.0 mm
12:05 40.5 °F /  4.7 °C 27.1 °F /  -2.7 °C 29.8 in /  1010.0 hPa NNE 4.6 mph /  7.4 km/h 4.6 mph /  7.4 km/h 59 % 0 in /  0.0 mm
12:10 40.8 °F /  4.9 °C 27.7 °F /  -2.4 °C 29.8 in /  1010.0 hPa ENE 2.4 mph /  3.9 km/h 2.4 mph /  3.9 km/h 59 % 0 in /  0.0 mm
12:15 41 °F /  5.0 °C 27.9 °F /  -2.3 °C 29.8 in /  1009.0 hPa NNE 4.6 mph /  7.4 km/h 4.6 mph /  7.4 km/h 59 % 0 in /  0.0 mm
12:25 41.2 °F /  5.1 °C 27.9 °F /  -2.3 °C 29.8 in /  1009.0 hPa NNE 3.3 mph /  5.3 km/h 3.3 mph /  5.3 km/h 59 % 0 in /  0.0 mm
12:30 41.5 °F /  5.3 °C 28.2 °F /  -2.1 °C 29.8 in /  1010.0 hPa NNE 3.3 mph /  5.3 km/h 3.3 mph /  5.3 km/h 59 % 0 in /  0.0 mm
12:35 41.4 °F /  5.2 °C 27.7 °F /  -2.4 °C 29.8 in /  1010.0 hPa NE 2.3 mph /  3.7 km/h 2.4 mph /  3.9 km/h 58 % 0 in /  0.0 mm
12:40 41.5 °F /  5.3 °C 28.2 °F /  -2.1 °C 29.8 in /  1010.0 hPa ENE 2.3 mph /  3.7 km/h 2.3 mph /  3.7 km/h 59 % 0 in /  0.0 mm
12:45 41.5 °F /  5.3 °C 27.9 °F /  -2.3 °C 29.8 in /  1010.0 hPa ENE 2.9 mph /  4.7 km/h 2.9 mph /  4.7 km/h 58 % 0 in /  0.0 mm
12:50 41.7 °F /  5.4 °C 28.4 °F /  -2.0 °C 29.8 in /  1010.0 hPa ENE 2.2 mph /  3.5 km/h 2.2 mph /  3.5 km/h 59 % 0 in /  0.0 mm
12:55 41.7 °F /  5.4 °C 28 °F /  -2.2 °C 29.8 in /  1010.0 hPa NE 4.6 mph /  7.4 km/h 4.6 mph /  7.4 km/h 58 % 0 in /  0.0 mm
13:00 41.5 °F /  5.3 °C 27.9 °F /  -2.3 °C 29.8 in /  1010.0 hPa NNE 4.6 mph /  7.4 km/h 4.6 mph /  7.4 km/h 58 % 0 in /  0.0 mm
13:05 41.4 °F /  5.2 °C 27.7 °F /  -2.4 °C 29.8 in /  1010.0 hPa NNE 4.6 mph /  7.4 km/h 4.6 mph /  7.4 km/h 58 % 0 in /  0.0 mm
13:11 41.4 °F /  5.2 °C 27.7 °F /  -2.4 °C 29.8 in /  1010.0 hPa ENE 4.6 mph /  7.4 km/h 4.6 mph /  7.4 km/h 58 % 0 in /  0.0 mm
13:21 41.7 °F /  5.4 °C 27.7 °F /  -2.4 °C 29.8 in /  1010.0 hPa East 2.3 mph /  3.7 km/h 2.3 mph /  3.7 km/h 57 % 0 in /  0.0 mm
13:26 41.9 °F /  5.5 °C 27.9 °F /  -2.3 °C 29.8 in /  1010.0 hPa NNE 4.6 mph /  7.4 km/h 4.6 mph /  7.4 km/h 57 % 0 in /  0.0 mm
13:31 41.9 °F /  5.5 °C 27.9 °F /  -2.3 °C 29.8 in /  1010.0 hPa SSW 5.8 mph /  9.3 km/h 5.8 mph /  9.3 km/h 57 % 0 in /  0.0 mm
13:36 41.9 °F /  5.5 °C 27.9 °F /  -2.3 °C 29.8 in /  1010.0 hPa NNE 5.8 mph /  9.3 km/h 5.8 mph /  9.3 km/h 57 % 0 in /  0.0 mm
13:41 41.9 °F /  5.5 °C 27.3 °F /  -2.6 °C 29.8 in /  1010.0 hPa NNE 4.6 mph /  7.4 km/h 4.6 mph /  7.4 km/h 56 % 0 in /  0.0 mm
13:46 41.9 °F /  5.5 °C 27.3 °F /  -2.6 °C 29.8 in /  1010.0 hPa NNW 2.9 mph /  4.7 km/h 2.9 mph /  4.7 km/h 56 % 0 in /  0.0 mm
13:51 41.9 °F /  5.5 °C 27.3 °F /  -2.6 °C 29.8 in /  1010.0 hPa NNW 3.5 mph /  5.6 km/h 3.5 mph /  5.6 km/h 56 % 0 in /  0.0 mm
14:01 42.3 °F /  5.7 °C 27.1 °F /  -2.7 °C 29.8 in /  1009.0 hPa NNW 3.5 mph /  5.6 km/h 3.5 mph /  5.6 km/h 55 % 0 in /  0.0 mm
14:06 42.4 °F /  5.8 °C 27.3 °F /  -2.6 °C 29.8 in /  1009.0 hPa NNW 1.2 mph /  1.9 km/h   55 % 0 in /  0.0 mm
14:11 42.6 °F /  5.9 °C 27.7 °F /  -2.4 °C 29.8 in /  1009.0 hPa West 1.2 mph /  1.9 km/h 1.2 mph /  1.9 km/h 55 % 0 in /  0.0 mm
14:21 43.2 °F /  6.2 °C 27.7 °F /  -2.4 °C 29.8 in /  1008.0 hPa ENE 4.6 mph /  7.4 km/h 4.6 mph /  7.4 km/h 54 % 0 in /  0.0 mm
14:26 43.2 °F /  6.2 °C 27.7 °F /  -2.4 °C 29.8 in /  1008.0 hPa NNE 6.9 mph /  11.1 km/h 6.9 mph /  11.1 km/h 54 % 0 in /  0.0 mm
14:31 43.3 °F /  6.3 °C 27.9 °F /  -2.3 °C 29.8 in /  1008.0 hPa SSE 2.3 mph /  3.7 km/h 2.9 mph /  4.7 km/h 54 % 0 in /  0.0 mm
14:36 43.5 °F /  6.4 °C 28 °F /  -2.2 °C 29.8 in /  1008.0 hPa SW 4.6 mph /  7.4 km/h 4.6 mph /  7.4 km/h 54 % 0 in /  0.0 mm
14:41 43.9 °F /  6.6 °C 28.2 °F /  -2.1 °C 29.8 in /  1008.0 hPa NNW 3.5 mph /  5.6 km/h 3.5 mph /  5.6 km/h 54 % 0 in /  0.0 mm
14:46 43.9 °F /  6.6 °C 28.2 °F /  -2.1 °C 29.8 in /  1008.0 hPa NE 3.5 mph /  5.6 km/h 3.5 mph /  5.6 km/h 54 % 0 in /  0.0 mm
14:51 43.9 °F /  6.6 °C 28.2 °F /  -2.1 °C 29.8 in /  1008.0 hPa NW 4.6 mph /  7.4 km/h 4.6 mph /  7.4 km/h 54 % 0 in /  0.0 mm
14:56 44.2 °F /  6.8 °C 28.2 °F /  -2.1 °C 29.8 in /  1008.0 hPa WSW 2.3 mph /  3.7 km/h 2.3 mph /  3.7 km/h 53 % 0 in /  0.0 mm
15:01 44.6 °F /  7.0 °C 28.6 °F /  -1.9 °C 29.8 in /  1008.0 hPa South 3.5 mph /  5.6 km/h 3.5 mph /  5.6 km/h 53 % 0 in /  0.0 mm
15:06 44.8 °F /  7.1 °C 28.2 °F /  -2.1 °C 29.8 in /  1008.0 hPa ENE 5.8 mph /  9.3 km/h 5.8 mph /  9.3 km/h 52 % 0 in /  0.0 mm
15:11 44.6 °F /  7.0 °C 28 °F /  -2.2 °C 29.8 in /  1008.0 hPa NE 5.8 mph /  9.3 km/h 5.8 mph /  9.3 km/h 52 % 0 in /  0.0 mm
15:16 44.6 °F /  7.0 °C 28 °F /  -2.2 °C 29.8 in /  1008.0 hPa NNW 3.8 mph /  6.1 km/h 3.8 mph /  6.1 km/h 52 % 0 in /  0.0 mm
15:26 44.6 °F /  7.0 °C 28 °F /  -2.2 °C 29.8 in /  1008.0 hPa NE 5.8 mph /  9.3 km/h 5.8 mph /  9.3 km/h 52 % 0 in /  0.0 mm
15:31 44.8 °F /  7.1 °C 28.2 °F /  -2.1 °C 29.8 in /  1008.0 hPa NNE 4.5 mph /  7.2 km/h 4.5 mph /  7.2 km/h 52 % 0 in /  0.0 mm
15:36 45.3 °F /  7.4 °C 28.2 °F /  -2.1 °C 29.8 in /  1008.0 hPa NE 2.3 mph /  3.7 km/h 2.3 mph /  3.7 km/h 51 % 0 in /  0.0 mm
15:41 45.9 °F /  7.7 °C 28.8 °F /  -1.8 °C 29.8 in /  1008.0 hPa SSW 2.3 mph /  3.7 km/h 2.3 mph /  3.7 km/h 51 % 0 in /  0.0 mm
15:51 45.7 °F /  7.6 °C 28.6 °F /  -1.9 °C 29.8 in /  1008.0 hPa WNW 2.3 mph /  3.7 km/h 2.3 mph /  3.7 km/h 51 % 0 in /  0.0 mm
15:56 45.5 °F /  7.5 °C 28.4 °F /  -2.0 °C 29.8 in /  1008.0 hPa East 3.5 mph /  5.6 km/h 3.5 mph /  5.6 km/h 51 % 0 in /  0.0 mm
16:01 44.8 °F /  7.1 °C 27.7 °F /  -2.4 °C 29.8 in /  1008.0 hPa NNE 3.5 mph /  5.6 km/h 3.5 mph /  5.6 km/h 51 % 0 in /  0.0 mm
16:06 44.6 °F /  7.0 °C 27.1 °F /  -2.7 °C 29.8 in /  1008.0 hPa WSW 6.4 mph /  10.3 km/h 6.4 mph /  10.3 km/h 50 % 0 in /  0.0 mm
16:11 44.4 °F /  6.9 °C 27 °F /  -2.8 °C 29.8 in /  1008.0 hPa WNW 2.3 mph /  3.7 km/h 2.3 mph /  3.7 km/h 50 % 0 in /  0.0 mm
16:16 44.2 °F /  6.8 °C 26.8 °F /  -2.9 °C 29.8 in /  1009.0 hPa WNW 2.3 mph /  3.7 km/h 2.3 mph /  3.7 km/h 50 % 0 in /  0.0 mm
16:21 44.1 °F /  6.7 °C 26.6 °F /  -3.0 °C 29.8 in /  1009.0 hPa West 1.2 mph /  1.9 km/h   50 % 0 in /  0.0 mm
16:26 43.9 °F /  6.6 °C 26.4 °F /  -3.1 °C 29.8 in /  1009.0 hPa WNW 1.2 mph /  1.9 km/h 1.2 mph /  1.9 km/h 50 % 0 in /  0.0 mm
16:31 43.7 °F /  6.5 °C 26.2 °F /  -3.2 °C 29.8 in /  1010.0 hPa NNE 2.3 mph /  3.7 km/h 2.3 mph /  3.7 km/h 50 % 0 in /  0.0 mm
16:36 43.5 °F /  6.4 °C 26.1 °F /  -3.3 °C 29.8 in /  1010.0 hPa NNE 2.3 mph /  3.7 km/h 2.3 mph /  3.7 km/h 50 % 0 in /  0.0 mm
16:41 43.3 °F /  6.3 °C 25.9 °F /  -3.4 °C 29.8 in /  1010.0 hPa WNW 2.3 mph /  3.7 km/h 2.3 mph /  3.7 km/h 50 % 0 in /  0.0 mm
16:46 43.3 °F /  6.3 °C 25.9 °F /  -3.4 °C 29.8 in /  1010.0 hPa Calm     50 % 0 in /  0.0 mm
17:01 42.6 °F /  5.9 °C 25.7 °F /  -3.5 °C 29.8 in /  1010.0 hPa ESE 4.6 mph /  7.4 km/h 4.6 mph /  7.4 km/h 51 % 0 in /  0.0 mm
17:11 42.3 °F /  5.7 °C 25.9 °F /  -3.4 °C 29.8 in /  1010.0 hPa ESE 5.8 mph /  9.3 km/h 5.8 mph /  9.3 km/h 52 % 0 in /  0.0 mm
17:16 41.9 °F /  5.5 °C 26.1 °F /  -3.3 °C 29.8 in /  1010.0 hPa ENE 5.8 mph /  9.3 km/h 5.8 mph /  9.3 km/h 53 % 0 in /  0.0 mm
17:21 41.5 °F /  5.3 °C 26.1 °F /  -3.3 °C 29.8 in /  1010.0 hPa ENE 3.5 mph /  5.6 km/h 3.5 mph /  5.6 km/h 54 % 0 in /  0.0 mm
17:31 41 °F /  5.0 °C 26.4 °F /  -3.1 °C 29.8 in /  1010.0 hPa East 3.5 mph /  5.6 km/h 3.5 mph /  5.6 km/h 56 % 0 in /  0.0 mm
17:36 40.6 °F /  4.8 °C 26.2 °F /  -3.2 °C 29.8 in /  1010.0 hPa East 2.3 mph /  3.7 km/h 2.3 mph /  3.7 km/h 56 % 0 in /  0.0 mm
17:46 40.1 °F /  4.5 °C 25.5 °F /  -3.6 °C 29.8 in /  1010.7 hPa NNE 5.9 mph /  9.5 km/h 5.9 mph /  9.5 km/h 56 % 0 in /  0.0 mm
17:47 40.1 °F /  4.5 °C 25.5 °F /  -3.6 °C 29.8 in /  1010.7 hPa ENE 5.8 mph /  9.3 km/h 5.8 mph /  9.3 km/h 56 % 0 in /  0.0 mm
18:02 39.7 °F /  4.3 °C 25.3 °F /  -3.7 °C 29.8 in /  1010.0 hPa ENE 3.5 mph /  5.6 km/h 3.5 mph /  5.6 km/h 56 % 0 in /  0.0 mm
18:07 39.7 °F /  4.3 °C 25.7 °F /  -3.5 °C 29.8 in /  1010.0 hPa NE 2.3 mph /  3.7 km/h 2.3 mph /  3.7 km/h 57 % 0 in /  0.0 mm
18:12 39.6 °F /  4.2 °C 25.5 °F /  -3.6 °C 29.8 in /  1010.0 hPa NNE 1.6 mph /  2.6 km/h   57 % 0 in /  0.0 mm
18:17 39.6 °F /  4.2 °C 25.5 °F /  -3.6 °C 29.8 in /  1010.7 hPa Calm     57 % 0 in /  0.0 mm
18:22 39.4 °F /  4.1 °C 25.3 °F /  -3.7 °C 29.8 in /  1010.7 hPa Calm     57 % 0 in /  0.0 mm
18:23 39.4 °F /  4.1 °C 25.3 °F /  -3.7 °C 29.8 in /  1010.7 hPa Calm     57 % 0 in /  0.0 mm
18:28 39.2 °F /  4.0 °C 25.2 °F /  -3.8 °C 29.8 in /  1010.7 hPa Calm     57 % 0 in /  0.0 mm
18:33 38.8 °F /  3.8 °C 25.3 °F /  -3.7 °C 29.8 in /  1010.7 hPa NE 1.6 mph /  2.6 km/h 1.6 mph /  2.6 km/h 58 % 0 in /  0.0 mm
18:38 38.7 °F /  3.7 °C 25.2 °F /  -3.8 °C 29.8 in /  1010.7 hPa Calm     58 % 0 in /  0.0 mm
18:48 38.3 °F /  3.5 °C 24.8 °F /  -4.0 °C 29.9 in /  1011.7 hPa Calm     58 % 0 in /  0.0 mm
19:03 37.9 °F /  3.3 °C 25.3 °F /  -3.7 °C 29.9 in /  1011.7 hPa Calm     60 % 0 in /  0.0 mm
19:08 37.8 °F /  3.2 °C 25.2 °F /  -3.8 °C 29.9 in /  1011.7 hPa Calm     60 % 0 in /  0.0 mm
19:13 37.2 °F /  2.9 °C 24.3 °F /  -4.3 °C 29.9 in /  1011.7 hPa SW 2.3 mph /  3.7 km/h 2.3 mph /  3.7 km/h 59 % 0 in /  0.0 mm
19:29 36.9 °F /  2.7 °C 24.3 °F /  -4.3 °C 29.9 in /  1011.7 hPa West 2.4 mph /  3.9 km/h 2.4 mph /  3.9 km/h 60 % 0 in /  0.0 mm
19:34 36.9 °F /  2.7 °C 24.3 °F /  -4.3 °C 29.9 in /  1011.7 hPa Calm     60 % 0 in /  0.0 mm
19:35 36.9 °F /  2.7 °C 24.6 °F /  -4.1 °C 29.9 in /  1011.7 hPa ENE 1.2 mph /  1.9 km/h   61 % 0 in /  0.0 mm
19:40 36.3 °F /  2.4 °C 24.1 °F /  -4.4 °C 29.9 in /  1011.7 hPa ENE 1.2 mph /  1.9 km/h   61 % 0 in /  0.0 mm
19:45 36.3 °F /  2.4 °C 24.4 °F /  -4.2 °C 29.9 in /  1012.8 hPa East 2.3 mph /  3.7 km/h 2.3 mph /  3.7 km/h 62 % 0 in /  0.0 mm
19:50 36.3 °F /  2.4 °C 24.1 °F /  -4.4 °C 29.9 in /  1012.8 hPa WSW 2.3 mph /  3.7 km/h 2.3 mph /  3.7 km/h 61 % 0 in /  0.0 mm
19:55 36.5 °F /  2.5 °C 24.6 °F /  -4.1 °C 29.9 in /  1012.8 hPa Calm     62 % 0 in /  0.0 mm
20:00 36.5 °F /  2.5 °C 24.6 °F /  -4.1 °C 29.9 in /  1013.8 hPa Calm     62 % 0 in /  0.0 mm
20:08 36.1 °F /  2.3 °C 24.4 °F /  -4.2 °C 29.9 in /  1013.8 hPa SW 2.3 mph /  3.7 km/h 2.3 mph /  3.7 km/h 62 % 0 in /  0.0 mm
20:13 35.6 °F /  2.0 °C 23.9 °F /  -4.5 °C 29.9 in /  1013.8 hPa SW 1.2 mph /  1.9 km/h   62 % 0 in /  0.0 mm
20:18 36 °F /  2.2 °C 24.3 °F /  -4.3 °C 29.9 in /  1012.8 hPa Calm     62 % 0 in /  0.0 mm
20:23 35.8 °F /  2.1 °C 24.1 °F /  -4.4 °C 29.9 in /  1012.8 hPa SW 2.3 mph /  3.7 km/h 2.3 mph /  3.7 km/h 62 % 0 in /  0.0 mm
20:28 35.6 °F /  2.0 °C 24.3 °F /  -4.3 °C 29.9 in /  1012.8 hPa Calm     63 % 0 in /  0.0 mm
20:33 35.8 °F /  2.1 °C 24.4 °F /  -4.2 °C 29.9 in /  1013.8 hPa Calm     63 % 0 in /  0.0 mm
20:38 35.8 °F /  2.1 °C 24.4 °F /  -4.2 °C 29.9 in /  1013.8 hPa WSW 1.2 mph /  1.9 km/h 1.2 mph /  1.9 km/h 63 % 0 in /  0.0 mm
20:43 36.3 °F /  2.4 °C 24.4 °F /  -4.2 °C 29.9 in /  1013.8 hPa WNW 2.3 mph /  3.7 km/h 2.3 mph /  3.7 km/h 62 % 0 in /  0.0 mm
20:48 36.1 °F /  2.3 °C 24.6 °F /  -4.1 °C 29.9 in /  1013.8 hPa SW 2.3 mph /  3.7 km/h 2.3 mph /  3.7 km/h 63 % 0 in /  0.0 mm
20:53 35.4 °F /  1.9 °C 24.1 °F /  -4.4 °C 29.9 in /  1013.8 hPa Calm     63 % 0 in /  0.0 mm
21:03 34.5 °F /  1.4 °C 22.8 °F /  -5.1 °C 29.9 in /  1013.8 hPa WSW 2.3 mph /  3.7 km/h 2.4 mph /  3.9 km/h 62 % 0 in /  0.0 mm
21:13 33.8 °F /  1.0 °C 22.1 °F /  -5.5 °C 29.9 in /  1013.8 hPa SW 2.3 mph /  3.7 km/h 2.3 mph /  3.7 km/h 62 % 0 in /  0.0 mm
21:18 33.8 °F /  1.0 °C 21.7 °F /  -5.7 °C 29.9 in /  1013.8 hPa WSW 2.3 mph /  3.7 km/h 2.3 mph /  3.7 km/h 61 % 0 in /  0.0 mm
21:28 34.3 °F /  1.3 °C 22.3 °F /  -5.4 °C 29.9 in /  1013.8 hPa WSW 1.2 mph /  1.9 km/h 1.2 mph /  1.9 km/h 61 % 0 in /  0.0 mm
21:33 34.3 °F /  1.3 °C 22.3 °F /  -5.4 °C 29.9 in /  1013.8 hPa SW 2.3 mph /  3.7 km/h 2.3 mph /  3.7 km/h 61 % 0 in /  0.0 mm
21:38 33.8 °F /  1.0 °C 21.7 °F /  -5.7 °C 29.9 in /  1013.8 hPa SW 2.3 mph /  3.7 km/h 2.3 mph /  3.7 km/h 61 % 0 in /  0.0 mm
21:44 33.8 °F /  1.0 °C 21.4 °F /  -5.9 °C 29.9 in /  1013.8 hPa West 2.6 mph /  4.2 km/h 2.6 mph /  4.2 km/h 60 % 0 in /  0.0 mm
21:49 34.7 °F /  1.5 °C 20.7 °F /  -6.3 °C 29.9 in /  1013.8 hPa West 4.3 mph /  6.9 km/h 4.3 mph /  6.9 km/h 56 % 0 in /  0.0 mm
22:04 35.1 °F /  1.7 °C 19.2 °F /  -7.1 °C 29.9 in /  1013.8 hPa ENE 1.2 mph /  1.9 km/h   52 % 0 in /  0.0 mm
22:09 35.1 °F /  1.7 °C 19.2 °F /  -7.1 °C 29.9 in /  1013.8 hPa ENE 2.3 mph /  3.7 km/h 2.3 mph /  3.7 km/h 52 % 0 in /  0.0 mm
22:14 34.9 °F /  1.6 °C 18.7 °F /  -7.4 °C 29.9 in /  1013.8 hPa ENE 1.2 mph /  1.9 km/h 1.2 mph /  1.9 km/h 51 % 0 in /  0.0 mm
22:19 34.7 °F /  1.5 °C 18.3 °F /  -7.6 °C 29.9 in /  1013.8 hPa East 2.3 mph /  3.7 km/h 2.3 mph /  3.7 km/h 51 % 0 in /  0.0 mm
22:24 34.5 °F /  1.4 °C 18.1 °F /  -7.7 °C 29.9 in /  1013.8 hPa ENE 1.2 mph /  1.9 km/h 1.2 mph /  1.9 km/h 51 % 0 in /  0.0 mm
22:29 34.3 °F /  1.3 °C 18.1 °F /  -7.7 °C 29.9 in /  1013.8 hPa NNE 3.1 mph /  5.0 km/h 3.1 mph /  5.0 km/h 51 % 0 in /  0.0 mm
22:34 34.5 °F /  1.4 °C 17.8 °F /  -7.9 °C 29.9 in /  1013.8 hPa North 1.2 mph /  1.9 km/h   50 % 0 in /  0.0 mm
22:45 35.8 °F /  2.1 °C 18.9 °F /  -7.3 °C 29.9 in /  1013.8 hPa West 3.5 mph /  5.6 km/h 3.5 mph /  5.6 km/h 50 % 0 in /  0.0 mm
22:50 36.1 °F /  2.3 °C 18.9 °F /  -7.3 °C 29.9 in /  1013.8 hPa SW 3.5 mph /  5.6 km/h 3.5 mph /  5.6 km/h 49 % 0 in /  0.0 mm
22:55 36.3 °F /  2.4 °C 19 °F /  -7.2 °C 29.9 in /  1013.8 hPa SW 3.8 mph /  6.1 km/h 3.8 mph /  6.1 km/h 49 % 0 in /  0.0 mm
22:59 36.5 °F /  2.5 °C 19 °F /  -7.2 °C 29.9 in /  1013.8 hPa WSW 2.9 mph /  4.7 km/h 2.9 mph /  4.7 km/h 49 % 0 in /  0.0 mm
23:05 36.5 °F /  2.5 °C 18.7 °F /  -7.4 °C 29.9 in /  1013.8 hPa WSW 4.6 mph /  7.4 km/h 4.6 mph /  7.4 km/h 48 % 0 in /  0.0 mm
23:10 36.5 °F /  2.5 °C 18.1 °F /  -7.7 °C 29.9 in /  1013.8 hPa West 2.3 mph /  3.7 km/h 2.3 mph /  3.7 km/h 47 % 0 in /  0.0 mm
23:15 36.5 °F /  2.5 °C 18.1 °F /  -7.7 °C 29.9 in /  1013.8 hPa West 2.3 mph /  3.7 km/h 2.3 mph /  3.7 km/h 47 % 0 in /  0.0 mm
23:19 36.7 °F /  2.6 °C 17.8 °F /  -7.9 °C 29.9 in /  1013.8 hPa West 2.3 mph /  3.7 km/h 2.3 mph /  3.7 km/h 46 % 0 in /  0.0 mm
23:25 36.7 °F /  2.6 °C 17.2 °F /  -8.2 °C 29.9 in /  1013.8 hPa Calm     45 % 0 in /  0.0 mm
23:30 36.5 °F /  2.5 °C 17.1 °F /  -8.3 °C 29.9 in /  1013.8 hPa WSW 1.6 mph /  2.6 km/h 1.6 mph /  2.6 km/h 45 % 0 in /  0.0 mm
23:35 36.3 °F /  2.4 °C 17.1 °F /  -8.3 °C 29.9 in /  1013.8 hPa West 1.2 mph /  1.9 km/h   45 % 0 in /  0.0 mm
23:40 36.3 °F /  2.4 °C 16.5 °F /  -8.6 °C 29.9 in /  1013.8 hPa WNW 1.2 mph /  1.9 km/h   44 % 0 in /  0.0 mm
23:45 36.1 °F /  2.3 °C 16.3 °F /  -8.7 °C 29.9 in /  1013.8 hPa West 2.6 mph /  4.2 km/h   44 % 0 in /  0.0 mm
23:49 36 °F /  2.2 °C 16.7 °F /  -8.5 °C 29.9 in /  1013.8 hPa WSW 4.9 mph /  7.9 km/h 4.9 mph /  7.9 km/h 45 % 0 in /  0.0 mm
23:54 36.1 °F /  2.3 °C 16.3 °F /  -8.7 °C 29.9 in /  1013.8 hPa WSW 3.5 mph /  5.6 km/h 3.6 mph /  5.8 km/h 44 % 0 in /  0.0 mm
23:59 36.3 °F /  2.4 °C 16.5 °F /  -8.6 °C 29.9 in /  1013.8 hPa West 4.6 mph /  7.4 km/h 4.6 mph /  7.4 km/h 44 % 0 in /  0.0 mm
Meteo Sesrovires
Elogis d' Weather Underground - 3.75 mb

Guio original per  Jim McMurry - jmcmurry@mwt.net Adaptat per a la plantilla per  Wim van der Kuil - Leuven-Template.eu

Trobareu la nostra informacio del temps tambe a:

Weather Underground

AWEKAS